Home > Products > Valid Products > MTR

000
SAUS45 KLKN 220055
MTRP68
METAR KP68 220053Z AUTO 04006KT 10/M10 A3007 RMK AO1 SLP155
T01001100





000
SAUS45 KLKN 212354
MTRP68
METAR KP68 212353Z AUTO 05011KT 12/M10 A3005 RMK AO1 SLP135
T01221100 10167 20122 55001





000
SAUS45 KLKN 212254
MTRP68
METAR KP68 212253Z AUTO 34009KT 17/M13 A3004 RMK AO1 SLP118
T01671128





000
SAUS45 KLKN 212254
MTRP68
METAR KP68 212253Z AUTO 34009KT 17/M13 A3004 RMK AO1 SLP118
T01671128





000
SAUS45 KLKN 212155
MTRP68
METAR KP68 212153Z AUTO 31010G16KT 17/M13 A3004 RMK AO1 SLP109
T01671128





000
SAUS45 KLKN 212155
MTRP68
METAR KP68 212153Z AUTO 31010G16KT 17/M13 A3004 RMK AO1 SLP109
T01671128





000
SAUS45 KLKN 212054
MTRP68
METAR KP68 212053Z AUTO 29010G18KT 16/M13 A3005 RMK AO1 SLP117
T01561128 56010





000
SAUS45 KLKN 211954
MTRP68
METAR KP68 211953Z AUTO 32015G21KT 15/M13 A3006 RMK AO1 SLP120
T01501128





000
SAUS45 KLKN 211854
MTRP68
METAR KP68 211853Z AUTO 28006KT 14/M13 A3008 RMK AO1 SLP123
T01391133





000
SAUS45 KLKN 211755
MTRP68
METAR KP68 211753Z AUTO 26010KT 13/M11 A3009 RMK AO1 SLP127
T01331106 10139 20017 50000





000
SAUS45 KLKN 211654
MTRP68
METAR KP68 211653Z AUTO 00000KT 12/M08 A3010 RMK AO1 SLP138
T01171083





000
SAUS45 KLKN 211654
MTRP68
METAR KP68 211653Z AUTO 00000KT 12/M08 A3010 RMK AO1 SLP138
T01171083





000
SAUS45 KLKN 211554
MTRP68
METAR KP68 211553Z AUTO 35005KT 10/M02 A3011 RMK AO1 SLP144
T01001022





000
SAUS45 KLKN 211554
MTRP68
METAR KP68 211553Z AUTO 35005KT 10/M02 A3011 RMK AO1 SLP144
T01001022





000
SAUS45 KLKN 211454
MTRP68
METAR KP68 211453Z AUTO 00000KT 07/M02 A3009 RMK AO1 SLP142
T00721022 53015





000
SAUS45 KLKN 211355
MTRP68
METAR KP68 211353Z AUTO 12006KT 02/M03 A3007 RMK AO1 SLP138
T00221033





000
SAUS45 KLKN 211255
MTRP68
METAR KP68 211253Z AUTO 13004KT 02/M03 A3005 RMK AO1 SLP130
T00221033





000
SAUS45 KLKN 211155
MTRP68
METAR KP68 211153Z AUTO 14003KT 06/M02 A3004 RMK AO1 SLP112
T00611017 10167 20061 51032





000
SAUS45 KLKN 211155
MTRP68
METAR KP68 211153Z AUTO 14003KT 06/M02 A3004 RMK AO1 SLP112
T00611017 10167 20061 51032





000
SAUS45 KLKN 211055
MTRP68
METAR KP68 211053Z AUTO 20003KT 09/M02 A3001 RMK AO1 SLP092
T00941017





000
SAUS45 KLKN 211055
MTRP68
METAR KP68 211053Z AUTO 20003KT 09/M02 A3001 RMK AO1 SLP092
T00941017





000
SAUS45 KLKN 210955
MTRP68
METAR KP68 210953Z AUTO 26012KT 13/M02 A2996 RMK AO1 WSHFT 0927
SLP071 T01281017





000
SAUS45 KLKN 210955
MTRP68
METAR KP68 210953Z AUTO 26012KT 13/M02 A2996 RMK AO1 WSHFT 0927
SLP071 T01281017





000
SAUS45 KLKN 210946
MTRP68
SPECI KP68 210944Z AUTO 25014KT 13/M01 A2996 RMK AO1 WSHFT 0927
T01331011





000
SAUS45 KLKN 210855
MTRP68
METAR KP68 210853Z AUTO 19010KT 13/00 A2992 RMK AO1 SLP056 T01280000
53003





000
SAUS45 KLKN 210755
MTRP68
METAR KP68 210753Z AUTO 24010KT 14/00 A2992 RMK AO1 SLP056 T01390000
402330022





000
SAUS45 KLKN 210655
MTRP68
METAR KP68 210653Z AUTO 19011KT 16/M01 A2991 RMK AO1 SLP049
T01561006





000
SAUS45 KLKN 210555
MTRP68
METAR KP68 210553Z AUTO 19018G25KT 17/M01 A2991 RMK AO1 PK WND
19032/0512 SLP050 T01671006 10222 20122 58002





000
SAUS45 KLKN 210455
MTRP68
METAR KP68 210453Z AUTO 16004KT 14/M01 A2993 RMK AO1 SLP063
T01441011





000
SAUS45 KLKN 210455
MTRP68
METAR KP68 210453Z AUTO 16004KT 14/M01 A2993 RMK AO1 SLP063
T01441011





000
SAUS45 KLKN 210355
MTRP68
METAR KP68 210353Z AUTO 08003KT 14/M02 A2992 RMK AO1 SLP067
T01441017





000
SAUS45 KLKN 210355
MTRP68
METAR KP68 210353Z AUTO 08003KT 14/M02 A2992 RMK AO1 SLP067
T01441017





000
SAUS45 KLKN 210255
MTRP68
METAR KP68 210253Z AUTO 20006KT 14/M02 A2992 RMK AO1 SLP079
T01441017 53002





000
SAUS45 KLKN 210255
MTRP68
METAR KP68 210253Z AUTO 20006KT 14/M02 A2992 RMK AO1 SLP079
T01441017 53002





000
SAUS45 KLKN 210155
MTRP68
METAR KP68 210153Z AUTO 19009KT 18/M01 A2992 RMK AO1 SLP081
T01781011





000
SAUS45 KLKN 210155
MTRP68
METAR KP68 210153Z AUTO 19009KT 18/M01 A2992 RMK AO1 SLP081
T01781011





000
SAUS45 KLKN 210054
MTRP68
METAR KP68 210053Z AUTO 20009KT 19/M02 A2991 RMK AO1 PK WND
19026/0003 SLP072 T01941017





000
SAUS45 KLKN 202354
MTRP68
METAR KP68 202353Z AUTO 18019G23KT 22/M02 A2991 RMK AO1 PK WND
17030/2256 SLP066 T02221017 10233 20206 58015





000
SAUS45 KLKN 202254
MTRP68
METAR KP68 202253Z AUTO 17020G24KT 23/M02 A2994 RMK AO1 PK WND
19026/2221 SLP072 T02331017





000
SAUS45 KLKN 202254
MTRP68
METAR KP68 202253Z AUTO 17020G24KT 23/M02 A2994 RMK AO1 PK WND
19026/2221 SLP072 T02331017





000
SAUS45 KLKN 202154
MTRP68
METAR KP68 202153Z AUTO 17018KT 23/M01 A2995 RMK AO1 PK WND
16026/2115 SLP073 T02331011





000
SAUS45 KLKN 202154
MTRP68
METAR KP68 202153Z AUTO 17018KT 23/M01 A2995 RMK AO1 PK WND
16026/2115 SLP073 T02331011





000
SAUS45 KLKN 202054
MTRP68
METAR KP68 202053Z AUTO 18020G28KT 23/M01 A2997 RMK AO1 PK WND
17029/2020 SLP076 T02331011 58022





000
SAUS45 KLKN 201954
MTRP68
METAR KP68 201953Z AUTO 17017G27KT 23/M03 A2999 RMK AO1 PK WND
17030/1908 SLP092 T02281028





000
SAUS45 KLKN 201855
MTRP68
METAR KP68 201853Z AUTO 18021G27KT 22/M01 A3003 RMK AO1 PK WND
18028/1825 SLP105 T02171006





000
SAUS45 KLKN 201754
MTRP68
METAR KP68 201753Z AUTO 16018G23KT 21/M01 A3005 RMK AO1 SLP108
T02061011 10206 20022 58006





000
SAUS45 KLKN 201658 COR
MTRP68
METAR KP68 201653Z AUTO 15014KT 19/01 A3006 RMK AO1 SLP118 T01890011





000
SAUS45 KLKN 201657
MTRP68
REQ RNOMTRP68





000
SAUS45 KLKN 201656 COR
MTRP68
METAR KP68 201653Z AUTO 15014KT 19/01 A3006 RMK AO1 SLP118 T01890011





000
SAUS45 KLKN 201555
MTRP68
METAR KP68 201553Z AUTO 19004KT 16/01 A3007 RMK AO1 SLP118 T01610011





000
SAUS45 KLKN 201455
MTRP68
METAR KP68 201453Z AUTO 17008KT 10/00 A3007 RMK AO1 SLP130 T01000000
53002





000
SAUS45 KLKN 201355
MTRP68
METAR KP68 201353Z AUTO 18004KT 04/M02 A3006 RMK AO1 SLP138
T00391017





000
SAUS45 KLKN 201254
MTRP68
METAR KP68 201253Z AUTO 21005KT 06/M02 A3006 RMK AO1 SLP128
T00561017





000
SAUS45 KLKN 201154
MTRP68
METAR KP68 201153Z AUTO 19006KT 07/M01 A3006 RMK AO1 SLP116
T00721011 10133 20067 53000





000
SAUS45 KLKN 201054
MTRP68
METAR KP68 201053Z AUTO 21008KT 07/M01 A3005 RMK AO1 SLP115
T00721011





000
SAUS45 KLKN 201054
MTRP68
METAR KP68 201053Z AUTO 21008KT 07/M01 A3005 RMK AO1 SLP115
T00721011





000
SAUS45 KLKN 200954
MTRP68
METAR KP68 200953Z AUTO 21008KT 10/M01 A3005 RMK AO1 SLP109
T01001011





000
SAUS45 KLKN 200954
MTRP68
METAR KP68 200953Z AUTO 21008KT 10/M01 A3005 RMK AO1 SLP109
T01001011





000
SAUS45 KLKN 200854
MTRP68
METAR KP68 200853Z AUTO 19007KT 11/00 A3006 RMK AO1 SLP109 T01060000
57002





000
SAUS45 KLKN 200754
MTRP68
METAR KP68 200753Z AUTO 19005KT 08/M02 A3006 RMK AO1 SLP115
T00831017 402330011





000
SAUS45 KLKN 200754
MTRP68
METAR KP68 200753Z AUTO 19005KT 08/M02 A3006 RMK AO1 SLP115
T00831017 402330011





000
SAUS45 KLKN 200654
MTRP68
METAR KP68 200653Z AUTO 19003KT 08/M02 A3006 RMK AO1 SLP119
T00831017





000
SAUS45 KLKN 200555
MTRP68
METAR KP68 200553Z AUTO 12005KT 11/M01 A3006 RMK AO1 SLP120
T01111006 10228 20100 53005





000
SAUS45 KLKN 200454
MTRP68
METAR KP68 200453Z AUTO 00000KT 11/M01 A3006 RMK AO1 SLP122
T01111011





000
SAUS45 KLKN 200354
MTRP68
METAR KP68 200353Z AUTO 18007KT 14/M01 A3005 RMK AO1 SLP121
T01441006





000
SAUS45 KLKN 200254
MTRP68
METAR KP68 200253Z AUTO 19006KT 14/00 A3004 RMK AO1 SLP131 T01440000
53007





000
SAUS45 KLKN 200155
MTRP68
METAR KP68 200153Z AUTO 15007KT 14/M01 A3004 RMK AO1 SLP133
T01441011





000
SAUS45 KLKN 200055
MTRP68
METAR KP68 200053Z AUTO 17007KT 18/M02 A3003 RMK AO1 SLP124
T01831022





000
SAUS45 KLKN 192354
MTRP68
METAR KP68 192353Z AUTO 16009KT 23/M02 A3002 RMK AO1 SLP112
T02281017 10233 20178 56010





000
SAUS45 KLKN 192354
MTRP68
METAR KP68 192353Z AUTO 16009KT 23/M02 A3002 RMK AO1 SLP112
T02281017 10233 20178 56010





000
SAUS45 KLKN 192255
MTRP68
METAR KP68 192253Z AUTO 22007KT 23/M02 A3003 RMK AO1 SLP110
T02281017





000
SAUS45 KLKN 192255
MTRP68
METAR KP68 192253Z AUTO 22007KT 23/M02 A3003 RMK AO1 SLP110
T02281017





000
SAUS45 KLKN 192155
MTRP68
METAR KP68 192153Z AUTO 15010KT 23/M02 A3004 RMK AO1 SLP115
T02281022





000
SAUS45 KLKN 192055
MTRP68
METAR KP68 192053Z AUTO 17006KT 22/M01 A3006 RMK AO1 SLP120
T02221011 58020





000
SAUS45 KLKN 191954
MTRP68
METAR KP68 191953Z AUTO 16012G20KT 22/01 A3008 RMK AO1 SLP123
T02220006





000
SAUS45 KLKN 191854
MTRP68
METAR KP68 191853Z AUTO VRB04KT 21/00 A3011 RMK AO1 SLP142 T02060000





000
SAUS45 KLKN 191754
MTRP68
METAR KP68 191753Z AUTO 05003KT 18/M02 A3013 RMK AO1 SLP153
T01781017 10178 20011 58003





000
SAUS45 KLKN 191654
MTRP68
METAR KP68 191653Z AUTO 00000KT 15/M03 A3013 RMK AO1 SLP153
T01501028





000
SAUS45 KLKN 191554
MTRP68
METAR KP68 191553Z AUTO 00000KT 11/M04 A3014 RMK AO1 SLP164
T01061044





000
SAUS45 KLKN 191454
MTRP68
METAR KP68 191453Z AUTO 20007KT 06/M04 A3014 RMK AO1 SLP170
T00561044 53010





000
SAUS45 KLKN 191354
MTRP68
METAR KP68 191353Z AUTO 21008KT 03/M05 A3012 RMK AO1 SLP165
T00281050





000
SAUS45 KLKN 191258 COR
MTRP68
METAR KP68 191253Z AUTO 19004KT 01/M07 A3011 RMK AO1 SLP156
T00111067





000
SAUS45 KLKN 191256 COR
MTRP68
METAR KP68 191253Z AUTO 19004KT 01/M07 A3011 RMK AO1 SLP156
T00111067





000
SAUS45 KLKN 191255 COR
MTRP68
METAR KP68 191253Z AUTO 19004KT 01/M07 A3011 RMK AO1 SLP156
T00111067





000
SAUS45 KLKN 191154
MTRP68
METAR KP68 191153Z AUTO 23003KT 02/M07 A3010 RMK AO1 SLP144
T00221067 10072 20017 56003





000
SAUS45 KLKN 191054
MTRP68
METAR KP68 191053Z AUTO 23005KT 04/M04 A3010 RMK AO1 SLP138
T00441044





000
SAUS45 KLKN 190954
MTRP68
METAR KP68 190953Z AUTO 20008KT 04/M04 A3010 RMK AO1 SLP139
T00441039





000
SAUS45 KLKN 190954
MTRP68
METAR KP68 190953Z AUTO 20008KT 04/M04 A3010 RMK AO1 SLP139
T00441039





000
SAUS45 KLKN 190854
MTRP68
METAR KP68 190853Z AUTO 20007KT 05/M04 A3011 RMK AO1 SLP142
T00501044 51003





000
SAUS45 KLKN 190754
MTRP68
METAR KP68 190753Z AUTO 22008KT 07/M05 A3011 RMK AO1 SLP138
T00721050 402220011





000
SAUS45 KLKN 190654
MTRP68
METAR KP68 190653Z AUTO VRB03KT 06/M06 A3010 RMK AO1 SLP143
T00561056





000
SAUS45 KLKN 190554
MTRP68
METAR KP68 190553Z AUTO 00000KT 06/M06 A3010 RMK AO1 SLP146
T00561056 10211 20044 51006





000
SAUS45 KLKN 190454
MTRP68
METAR KP68 190453Z AUTO 00000KT 09/M06 A3010 RMK AO1 SLP143
T00891056





000
SAUS45 KLKN 190454
MTRP68
METAR KP68 190453Z AUTO 00000KT 09/M06 A3010 RMK AO1 SLP143
T00891056





000
SAUS45 KLKN 190354
MTRP68
METAR KP68 190353Z AUTO 00000KT 10/M06 A3009 RMK AO1 SLP146
T01001056





000
SAUS45 KLKN 190354
MTRP68
METAR KP68 190353Z AUTO 00000KT 10/M06 A3009 RMK AO1 SLP146
T01001056





000
SAUS45 KLKN 190254
MTRP68
METAR KP68 190253Z AUTO 17004KT 11/M05 A3008 RMK AO1 SLP154
T01061050 53007





000
SAUS45 KLKN 190154
MTRP68
METAR KP68 190153Z AUTO 21003KT 13/M04 A3006 RMK AO1 SLP147
T01331039





    US Dept of Commerce
    National Oceanic and Atmospheric Administration
    National Weather Service
    1325 East West Highway
    Silver Spring, MD 20910
    Page Author: NWS Internet Services Team
Disclaimer
Information Quality
Credits
Glossary
Privacy Policy
Freedom of Information Act (FOIA)
About Us
Career Opportunities